Charles Alfred — WYU9726 — position and weather

sailwx.info

Track history (hours):
 
Tides and Currents Weather Stations Pressure Air Temp Water Temp Dewpoint Dewpoint Depression Visibility Wind Speed Wind Dir Waves Ship Positions

Charles Alfred

Owner: CHARLES ALFRED INC, HACKBERRY, LA. More information available from US FCC via Universal Licensing System and Coast Guard Vessel Documentation Center.

Last reported at 2018-Jun-18 18:06 UTC. Time now 2018-Jun-18 22:38 UTC.
Position N 29°23' W 094°46'.

Length 16 m; draft 1 m.

Type: Towing. MMSI: 366973420.

Date/timePositionNaut miles runAvg speedWind from/ knotsBaromVisibWave heightAir tempDewpointWater temp
2018-Jun-18 18:06N 29°23' W 094°46'1 6.0
2018-Jun-18 17:56N 29°22' W 094°47'15 5.1
2018-Jun-18 14:55N 29°35' W 094°56'3 5.9
2018-Jun-18 14:26N 29°38' W 094°58'3 6.4
2018-Jun-18 14:00N 29°41' W 094°59'2 0.1
2018-Jun-17 11:45N 29°42' W 095°01'2 7.1
2018-Jun-17 11:30N 29°41' W 094°59'3 6.9
2018-Jun-17 11:00N 29°38' W 094°58'27 3.6
2018-Jun-17 03:23N 29°14' W 095°13'0 0.0
2018-Jun-17 03:00N 29°14' W 095°13'0 0.0
2018-Jun-17 02:30N 29°14' W 095°13'0 0.0
2018-Jun-17 02:00N 29°14' W 095°13'0 0.0
2018-Jun-17 01:30N 29°14' W 095°13'0 0.0
2018-Jun-17 00:59N 29°14' W 095°13'0 0.0
2018-Jun-17 00:30N 29°14' W 095°13'0 0.0
2018-Jun-16 23:54N 29°14' W 095°13'0 0.0
2018-Jun-16 23:26N 29°14' W 095°13'0 0.0
2018-Jun-16 22:56N 29°14' W 095°13'0 0.0
2018-Jun-16 22:22N 29°14' W 095°13'0 0.0
2018-Jun-16 21:57N 29°14' W 095°13'0 0.4
2018-Jun-16 21:30N 29°14' W 095°13'2 3.4
2018-Jun-16 21:00N 29°13' W 095°12'1 1.5
2018-Jun-16 20:30N 29°13' W 095°13'1 2.4
2018-Jun-16 20:00N 29°15' W 095°13'1 1.3
2018-Jun-16 19:30N 29°14' W 095°13'2 3.6
2018-Jun-16 19:00N 29°13' W 095°12'3 5.0
2018-Jun-16 18:30N 29°12' W 095°09'2 4.1
2018-Jun-16 18:00N 29°10' W 095°07'3 5.6
2018-Jun-16 17:30N 29°11' W 095°04'3 5.3
2018-Jun-16 17:00N 29°13' W 095°02'2 4.7
2018-Jun-16 16:30N 29°15' W 095°00'3 5.9
2018-Jun-16 16:00N 29°17' W 094°58'3 6.3
2018-Jun-16 15:29N 29°17' W 094°54'3 5.1
2018-Jun-16 15:00N 29°19' W 094°52'2 4.5
2018-Jun-16 14:30N 29°20' W 094°50'24 3.9
2018-Jun-16 08:19N 29°34' W 094°27'3 4.3
2018-Jun-16 07:39N 29°36' W 094°24'1 5.0
2018-Jun-16 07:27N 29°36' W 094°23'2 5.0
2018-Jun-16 07:00N 29°37' W 094°21'3 5.1
2018-Jun-16 06:29N 29°38' W 094°18'2 5.1
2018-Jun-16 06:00N 29°39' W 094°16'3 5.1
2018-Jun-16 05:30N 29°40' W 094°13'2 4.9
2018-Jun-16 05:00N 29°41' W 094°11'2 4.4
2018-Jun-16 04:30N 29°42' W 094°08'2 4.6
2018-Jun-16 04:00N 29°44' W 094°06'2 4.6
2018-Jun-16 03:30N 29°45' W 094°04'2 4.7
2018-Jun-16 03:00N 29°47' W 094°02'2 4.7
2018-Jun-16 02:30N 29°48' W 094°00'2 4.4
2018-Jun-16 02:00N 29°49' W 093°58'3 5.2
2018-Jun-16 01:30N 29°52' W 093°56'3 6.8
2018-Jun-16 01:00N 29°54' W 093°54'3 6.5
2018-Jun-16 00:30N 29°57' W 093°52'2 4.9
2018-Jun-16 00:00N 29°59' W 093°53'3 6.6
2018-Jun-15 23:30N 29°60' W 093°57'3 5.1
2018-Jun-15 23:00N 30°01' W 093°60'2 5.0
2018-Jun-15 22:30N 30°02' W 094°02'1 1.4
2018-Jun-15 22:00N 30°02' W 094°03'0 0.0
2018-Jun-15 21:30N 30°02' W 094°03'0 0.0
2018-Jun-15 21:00N 30°02' W 094°03'0 0.0
2018-Jun-15 20:29N 30°02' W 094°03'0 0.0
2018-Jun-15 20:00N 30°02' W 094°03'0 0.0
2018-Jun-15 19:30N 30°02' W 094°03'0 0.0
2018-Jun-15 19:00N 30°02' W 094°03'0 0.0
2018-Jun-15 18:30N 30°02' W 094°03'0 0.0
2018-Jun-15 18:00N 30°02' W 094°03'0 0.0
2018-Jun-15 17:30N 30°02' W 094°03'0 0.0
2018-Jun-15 17:00N 30°02' W 094°03'0 0.0
2018-Jun-15 16:30N 30°02' W 094°03'0 0.0
2018-Jun-15 16:00N 30°02' W 094°03'0 0.1
2018-Jun-15 15:30N 30°02' W 094°03'0 0.0
2018-Jun-15 15:00N 30°02' W 094°03'0 0.0
2018-Jun-15 14:30N 30°02' W 094°03'0 0.0
2018-Jun-15 14:00N 30°02' W 094°03'0 0.0
2018-Jun-15 13:30N 30°02' W 094°03'0 0.0
2018-Jun-15 13:00N 30°02' W 094°03'0 0.0
2018-Jun-15 12:30N 30°02' W 094°03'0 0.0
2018-Jun-15 12:00N 30°02' W 094°03'0 0.0
2018-Jun-15 11:30N 30°02' W 094°03'2 4.7
2018-Jun-15 11:00N 30°01' W 094°01'3 6.1
2018-Jun-15 10:30N 30°00' W 093°57'4 7.3
2018-Jun-15 10:00N 29°59' W 093°53'3 6.2
2018-Jun-15 09:30N 29°59' W 093°50'4 7.3
2018-Jun-15 08:58N 30°01' W 093°46'3 6.3
2018-Jun-15 08:29N 30°03' W 093°43'4 7.2
2018-Jun-15 08:00N 30°04' W 093°39'4 7.1
2018-Jun-15 07:30N 30°04' W 093°35'3 6.5
2018-Jun-15 07:00N 30°04' W 093°32'3 6.5
2018-Jun-15 06:30N 30°04' W 093°28'3 6.3
2018-Jun-15 06:00N 30°04' W 093°24'3 5.4
2018-Jun-15 05:30N 30°04' W 093°21'2 4.8
2018-Jun-15 05:00N 30°06' W 093°20'4 7.2
2018-Jun-15 04:30N 30°09' W 093°20'0 0.1
2018-Jun-15 04:00N 30°09' W 093°20'0 0.0
2018-Jun-15 03:30N 30°09' W 093°20'0 0.0
2018-Jun-15 03:00N 30°09' W 093°20'0 0.0
2018-Jun-15 02:30N 30°09' W 093°20'0 0.0
2018-Jun-15 02:00N 30°09' W 093°20'0 0.0
2018-Jun-15 01:30N 30°09' W 093°20'0 0.0
2018-Jun-15 01:00N 30°09' W 093°20'0 0.0
2018-Jun-15 00:30N 30°09' W 093°20'0 0.0
2018-Jun-15 00:00N 30°09' W 093°20'0 0.0
2018-Jun-14 23:30N 30°09' W 093°20'0 0.0
2018-Jun-14 23:00N 30°09' W 093°20'3 5.9
2018-Jun-14 22:30N 30°06' W 093°20'1 2.9
2018-Jun-14 22:00N 30°05' W 093°20'0 0.0
2018-Jun-14 21:30N 30°05' W 093°20'1 1.3
2018-Jun-14 20:58N 30°06' W 093°20'2 3.3
2018-Jun-14 20:30N 30°07' W 093°20'2 3.6
2018-Jun-14 20:00N 30°09' W 093°20'1 2.7
2018-Jun-14 19:30N 30°08' W 093°20'3 5.2
2018-Jun-14 19:00N 30°05' W 093°20'2 3.4
2018-Jun-14 18:30N 30°04' W 093°21'0 0.0
2018-Jun-14 18:00N 30°04' W 093°21'2 3.2
2018-Jun-14 17:30N 30°05' W 093°20'0 0.7
2018-Jun-14 17:00N 30°05' W 093°20'0 0.3
2018-Jun-14 16:30N 30°05' W 093°20'2 4.1
2018-Jun-14 16:00N 30°04' W 093°22'2 4.6
2018-Jun-14 15:30N 30°05' W 093°20'0 0.9
2018-Jun-14 15:00N 30°06' W 093°20'0 0.4
2018-Jun-14 14:30N 30°06' W 093°20'3 6.4
2018-Jun-14 14:00N 30°09' W 093°20'0 0.8
2018-Jun-14 13:30N 30°09' W 093°20'0 0.0
2018-Jun-14 13:00N 30°09' W 093°20'0 0.0
2018-Jun-14 12:30N 30°09' W 093°20'0 0.0
2018-Jun-14 10:38N 30°09' W 093°20'0 0.0
2018-Jun-14 10:30N 30°09' W 093°20'0 0.0
2018-Jun-14 10:00N 30°09' W 093°20'0 0.0
2018-Jun-14 09:30N 30°09' W 093°20'0 0.0
2018-Jun-14 09:00N 30°09' W 093°20'0 0.0
2018-Jun-14 08:30N 30°09' W 093°20'0 0.0
2018-Jun-14 08:00N 30°09' W 093°20'0 0.0
2018-Jun-14 07:30N 30°09' W 093°20'0 0.0
2018-Jun-14 07:00N 30°09' W 093°20'1 1.4
2018-Jun-14 06:30N 30°09' W 093°20'3 5.7
2018-Jun-14 06:00N 30°06' W 093°20'2 4.1
2018-Jun-14 05:30N 30°04' W 093°21'2 3.6
2018-Jun-14 05:00N 30°04' W 093°23'2 4.9
2018-Jun-14 04:30N 30°04' W 093°26'3 4.9
2018-Jun-14 03:59N 30°04' W 093°29'2 4.8
2018-Jun-14 03:30N 30°04' W 093°31'3 4.6
2018-Jun-14 02:56N 30°04' W 093°34'2 4.6
2018-Jun-14 02:30N 30°04' W 093°37'2 4.5
2018-Jun-14 02:00N 30°03' W 093°39'2 4.6
2018-Jun-14 01:29N 30°03' W 093°42'2 4.5
2018-Jun-14 00:59N 30°02' W 093°44'2 4.3
2018-Jun-14 00:30N 30°01' W 093°46'2 4.6
2018-Jun-14 00:00N 29°59' W 093°48'3 5.1
2018-Jun-13 23:30N 29°58' W 093°51'1 2.4
2018-Jun-13 23:00N 29°58' W 093°52'0 0.0
2018-Jun-13 22:30N 29°58' W 093°52'0 0.0
2018-Jun-13 22:00N 29°58' W 093°52'0 0.0
2018-Jun-13 21:30N 29°58' W 093°52'0 0.0
2018-Jun-13 21:00N 29°58' W 093°52'0 0.0
2018-Jun-13 20:30N 29°58' W 093°52'0 0.0
2018-Jun-13 20:00N 29°58' W 093°52'0 0.1
2018-Jun-13 19:30N 29°58' W 093°52'2 4.8
2018-Jun-13 19:00N 29°59' W 093°54'3 6.7
2018-Jun-13 18:30N 30°00' W 093°57'3 5.9
2018-Jun-13 18:00N 30°01' W 094°01'2 4.5
2018-Jun-13 17:30N 30°02' W 094°03'0 0.0
2018-Jun-13 17:00N 30°02' W 094°03'0 0.0
2018-Jun-13 16:30N 30°02' W 094°03'0 0.0
2018-Jun-13 16:00N 30°02' W 094°03'0 0.0
2018-Jun-13 15:30N 30°02' W 094°03'0 0.0
2018-Jun-13 15:00N 30°02' W 094°03'0 0.0
2018-Jun-13 14:30N 30°02' W 094°03'0 0.0
2018-Jun-13 14:00N 30°02' W 094°03'0 0.0
2018-Jun-13 13:30N 30°02' W 094°03'0 0.0
2018-Jun-13 13:00N 30°02' W 094°03'0 0.0
2018-Jun-13 12:30N 30°02' W 094°03'0 0.0
2018-Jun-13 12:00N 30°02' W 094°03'0 0.0
2018-Jun-13 11:30N 30°02' W 094°03'0 0.0
2018-Jun-13 11:00N 30°02' W 094°03'0 0.0
2018-Jun-13 10:30N 30°02' W 094°03'2 3.9
2018-Jun-13 10:00N 30°01' W 094°01'3 6.6
2018-Jun-13 09:30N 30°00' W 093°57'3 5.8
2018-Jun-13 09:00N 29°59' W 093°54'3 5.9
2018-Jun-13 08:30N 29°57' W 093°52'4 7.7
2018-Jun-13 08:00N 29°54' W 093°54'4 7.2
2018-Jun-13 07:30N 29°51' W 093°57'3 5.4
2018-Jun-13 07:00N 29°49' W 093°59'0 0.1
2018-Jun-13 06:30N 29°49' W 093°59'0 0.0
2018-Jun-13 06:00N 29°49' W 093°59'2 3.6
2018-Jun-13 05:30N 29°48' W 094°00'3 6.4
2018-Jun-13 05:00N 29°46' W 094°03'3 6.6
2018-Jun-13 04:30N 29°44' W 094°06'3 6.0
2018-Jun-13 04:00N 29°42' W 094°09'3 6.3
2018-Jun-13 03:30N 29°41' W 094°12'3 6.0
2018-Jun-13 03:00N 29°39' W 094°15'3 5.7
2018-Jun-13 02:30N 29°38' W 094°18'27 5.9
2018-Jun-12 22:01N 29°25' W 094°44'1 6.0
2018-Jun-12 21:50N 29°24' W 094°45'2 5.7
2018-Jun-12 21:30N 29°22' W 094°47'13 6.3
2018-Jun-12 19:31N 29°33' W 094°55'6 7.1
2018-Jun-12 18:43N 29°38' W 094°58'2 7.5
2018-Jun-12 18:29N 29°40' W 094°58'4 0.2
2018-Jun-11 20:38N 29°42' W 095°01'2 6.3
2018-Jun-11 20:19N 29°41' W 094°59'1 0.2
2018-Jun-11 16:47N 29°41' W 094°58'1 3.0
2018-Jun-11 16:28N 29°40' W 094°59'3 5.3
2018-Jun-11 16:00N 29°38' W 094°58'27 3.4
2018-Jun-11 08:05N 29°34' W 094°27'1 4.2
2018-Jun-11 07:49N 29°34' W 094°26'2 3.7
2018-Jun-11 07:17N 29°36' W 094°25'1 4.7
2018-Jun-11 07:00N 29°36' W 094°23'2 3.8
2018-Jun-11 06:30N 29°37' W 094°21'2 3.1
2018-Jun-11 06:00N 29°37' W 094°20'2 4.9
2018-Jun-11 05:30N 29°38' W 094°17'2 4.9
2018-Jun-11 05:00N 29°40' W 094°15'2 4.8
2018-Jun-11 04:30N 29°41' W 094°12'2 4.6
2018-Jun-11 04:00N 29°41' W 094°10'2 4.2
2018-Jun-11 03:30N 29°43' W 094°08'2 4.5
2018-Jun-11 03:00N 29°44' W 094°06'2 4.5
2018-Jun-11 02:30N 29°45' W 094°04'2 4.7
2018-Jun-11 02:00N 29°47' W 094°02'2 4.6
2018-Jun-11 01:30N 29°49' W 093°60'2 5.0
2018-Jun-11 01:00N 29°50' W 093°57'4 7.6
2018-Jun-11 00:30N 29°53' W 093°55'4 7.6
2018-Jun-11 00:00N 29°56' W 093°52'3 5.6
2018-Jun-10 23:30N 29°59' W 093°52'3 6.9
2018-Jun-10 23:00N 29°60' W 093°56'3 5.6
2018-Jun-10 22:30N 30°01' W 093°59'3 5.9
2018-Jun-10 22:00N 30°02' W 094°02'1 1.5
2018-Jun-10 21:30N 30°02' W 094°03'0 0.0
2018-Jun-10 21:00N 30°02' W 094°03'0 0.0
2018-Jun-10 20:30N 30°02' W 094°03'0 0.0
2018-Jun-10 20:00N 30°02' W 094°03'0 0.0
2018-Jun-10 19:30N 30°02' W 094°03'0 0.0
2018-Jun-10 19:00N 30°02' W 094°03'0 0.0
2018-Jun-10 18:30N 30°02' W 094°03'0 0.0
2018-Jun-10 18:00N 30°02' W 094°03'0 0.0
2018-Jun-10 17:30N 30°02' W 094°03'0 0.0
2018-Jun-10 17:00N 30°02' W 094°03'0 0.0
2018-Jun-10 16:30N 30°02' W 094°03'0 0.0
2018-Jun-10 16:00N 30°02' W 094°03'0 0.0
2018-Jun-10 15:30N 30°02' W 094°03'0 0.0
2018-Jun-10 15:00N 30°02' W 094°03'0 0.0
2018-Jun-10 14:30N 30°02' W 094°03'0 0.0
2018-Jun-10 13:30N 30°02' W 094°03'0 0.0
2018-Jun-10 13:00N 30°02' W 094°03'0 0.0
2018-Jun-10 12:30N 30°02' W 094°03'0 0.0
2018-Jun-10 12:00N 30°02' W 094°03'0 0.0
2018-Jun-10 11:30N 30°02' W 094°03'0 0.0
2018-Jun-10 11:00N 30°02' W 094°03'0 0.0
2018-Jun-10 10:30N 30°02' W 094°03'0 0.0
2018-Jun-10 10:00N 30°02' W 094°03'0 0.0
2018-Jun-10 09:30N 30°02' W 094°03'0 0.0
2018-Jun-10 09:00N 30°02' W 094°03'0 0.0
2018-Jun-10 08:30N 30°02' W 094°03'0 0.0
2018-Jun-10 08:00N 30°02' W 094°03'0 0.0
2018-Jun-10 07:30N 30°02' W 094°03'0 0.0
2018-Jun-10 07:00N 30°02' W 094°03'1 1.5
2018-Jun-10 06:30N 30°02' W 094°02'3 6.6
2018-Jun-10 06:00N 30°01' W 093°58'3 6.0
2018-Jun-10 05:30N 29°59' W 093°55'3 6.1
2018-Jun-10 05:01N 29°59' W 093°52'3 5.1
2018-Jun-10 04:31N 29°56' W 093°52'3 5.5
2018-Jun-10 04:00N 29°54' W 093°54'3 5.3
2018-Jun-10 03:30N 29°52' W 093°56'2 4.6
2018-Jun-10 03:00N 29°50' W 093°57'2 4.7
2018-Jun-10 02:30N 29°49' W 093°60'4 7.3
2018-Jun-10 02:00N 29°46' W 094°03'4 7.3
2018-Jun-10 01:30N 29°44' W 094°06'4 7.5
2018-Jun-10 01:00N 29°42' W 094°09'4 7.0
2018-Jun-10 00:30N 29°40' W 094°13'3 6.8
2018-Jun-10 00:00N 29°39' W 094°17'3 6.5
2018-Jun-09 23:30N 29°37' W 094°20'  
Track history (hours):
 
Tides and Currents Weather Stations Pressure Air Temp Water Temp Dewpoint Dewpoint Depression Visibility Wind Speed Wind Dir Waves Ship Positions

Charles Alfred

Owner: CHARLES ALFRED INC, HACKBERRY, LA. More information available from US FCC via Universal Licensing System and Coast Guard Vessel Documentation Center.

Last reported at 2018-Jun-18 18:06 UTC. Time now 2018-Jun-18 22:38 UTC.
Position N 29°23' W 094°46'.

Length 16 m; draft 1 m.

Type: Towing. MMSI: 366973420.

Date/timePositionNaut miles runAvg speedWind from/ knotsBaromVisibWave heightAir tempDewpointWater temp
2018-Jun-18 18:06N 29°23' W 094°46'1 6.0
2018-Jun-18 17:56N 29°22' W 094°47'15 5.1
2018-Jun-18 14:55N 29°35' W 094°56'3 5.9
2018-Jun-18 14:26N 29°38' W 094°58'3 6.4
2018-Jun-18 14:00N 29°41' W 094°59'2 0.1
2018-Jun-17 11:45N 29°42' W 095°01'2 7.1
2018-Jun-17 11:30N 29°41' W 094°59'3 6.9
2018-Jun-17 11:00N 29°38' W 094°58'27 3.6
2018-Jun-17 03:23N 29°14' W 095°13'0 0.0
2018-Jun-17 03:00N 29°14' W 095°13'0 0.0
2018-Jun-17 02:30N 29°14' W 095°13'0 0.0
2018-Jun-17 02:00N 29°14' W 095°13'0 0.0
2018-Jun-17 01:30N 29°14' W 095°13'0 0.0
2018-Jun-17 00:59N 29°14' W 095°13'0 0.0
2018-Jun-17 00:30N 29°14' W 095°13'0 0.0
2018-Jun-16 23:54N 29°14' W 095°13'0 0.0
2018-Jun-16 23:26N 29°14' W 095°13'0 0.0
2018-Jun-16 22:56N 29°14' W 095°13'0 0.0
2018-Jun-16 22:22N 29°14' W 095°13'0 0.0
2018-Jun-16 21:57N 29°14' W 095°13'0 0.4
2018-Jun-16 21:30N 29°14' W 095°13'2 3.4
2018-Jun-16 21:00N 29°13' W 095°12'1 1.5
2018-Jun-16 20:30N 29°13' W 095°13'1 2.4
2018-Jun-16 20:00N 29°15' W 095°13'1 1.3
2018-Jun-16 19:30N 29°14' W 095°13'2 3.6
2018-Jun-16 19:00N 29°13' W 095°12'3 5.0
2018-Jun-16 18:30N 29°12' W 095°09'2 4.1
2018-Jun-16 18:00N 29°10' W 095°07'3 5.6
2018-Jun-16 17:30N 29°11' W 095°04'3 5.3
2018-Jun-16 17:00N 29°13' W 095°02'2 4.7
2018-Jun-16 16:30N 29°15' W 095°00'3 5.9
2018-Jun-16 16:00N 29°17' W 094°58'3 6.3
2018-Jun-16 15:29N 29°17' W 094°54'3 5.1
2018-Jun-16 15:00N 29°19' W 094°52'2 4.5
2018-Jun-16 14:30N 29°20' W 094°50'24 3.9
2018-Jun-16 08:19N 29°34' W 094°27'3 4.3
2018-Jun-16 07:39N 29°36' W 094°24'1 5.0
2018-Jun-16 07:27N 29°36' W 094°23'2 5.0
2018-Jun-16 07:00N 29°37' W 094°21'3 5.1
2018-Jun-16 06:29N 29°38' W 094°18'2 5.1
2018-Jun-16 06:00N 29°39' W 094°16'3 5.1
2018-Jun-16 05:30N 29°40' W 094°13'2 4.9
2018-Jun-16 05:00N 29°41' W 094°11'2 4.4
2018-Jun-16 04:30N 29°42' W 094°08'2 4.6
2018-Jun-16 04:00N 29°44' W 094°06'2 4.6
2018-Jun-16 03:30N 29°45' W 094°04'2 4.7
2018-Jun-16 03:00N 29°47' W 094°02'2 4.7
2018-Jun-16 02:30N 29°48' W 094°00'2 4.4
2018-Jun-16 02:00N 29°49' W 093°58'3 5.2
2018-Jun-16 01:30N 29°52' W 093°56'3 6.8
2018-Jun-16 01:00N 29°54' W 093°54'3 6.5
2018-Jun-16 00:30N 29°57' W 093°52'2 4.9
2018-Jun-16 00:00N 29°59' W 093°53'3 6.6
2018-Jun-15 23:30N 29°60' W 093°57'3 5.1
2018-Jun-15 23:00N 30°01' W 093°60'2 5.0
2018-Jun-15 22:30N 30°02' W 094°02'1 1.4
2018-Jun-15 22:00N 30°02' W 094°03'0 0.0
2018-Jun-15 21:30N 30°02' W 094°03'0 0.0
2018-Jun-15 21:00N 30°02' W 094°03'0 0.0
2018-Jun-15 20:29N 30°02' W 094°03'0 0.0
2018-Jun-15 20:00N 30°02' W 094°03'0 0.0
2018-Jun-15 19:30N 30°02' W 094°03'0 0.0
2018-Jun-15 19:00N 30°02' W 094°03'0 0.0
2018-Jun-15 18:30N 30°02' W 094°03'0 0.0
2018-Jun-15 18:00N 30°02' W 094°03'0 0.0
2018-Jun-15 17:30N 30°02' W 094°03'0 0.0
2018-Jun-15 17:00N 30°02' W 094°03'0 0.0
2018-Jun-15 16:30N 30°02' W 094°03'0 0.0
2018-Jun-15 16:00N 30°02' W 094°03'0 0.1
2018-Jun-15 15:30N 30°02' W 094°03'0 0.0
2018-Jun-15 15:00N 30°02' W 094°03'0 0.0
2018-Jun-15 14:30N 30°02' W 094°03'0 0.0
2018-Jun-15 14:00N 30°02' W 094°03'0 0.0
2018-Jun-15 13:30N 30°02' W 094°03'0 0.0
2018-Jun-15 13:00N 30°02' W 094°03'0 0.0
2018-Jun-15 12:30N 30°02' W 094°03'0 0.0
2018-Jun-15 12:00N 30°02' W 094°03'0 0.0
2018-Jun-15 11:30N 30°02' W 094°03'2 4.7
2018-Jun-15 11:00N 30°01' W 094°01'3 6.1
2018-Jun-15 10:30N 30°00' W 093°57'4 7.3
2018-Jun-15 10:00N 29°59' W 093°53'3 6.2
2018-Jun-15 09:30N 29°59' W 093°50'4 7.3
2018-Jun-15 08:58N 30°01' W 093°46'3 6.3
2018-Jun-15 08:29N 30°03' W 093°43'4 7.2
2018-Jun-15 08:00N 30°04' W 093°39'4 7.1
2018-Jun-15 07:30N 30°04' W 093°35'3 6.5
2018-Jun-15 07:00N 30°04' W 093°32'3 6.5
2018-Jun-15 06:30N 30°04' W 093°28'3 6.3
2018-Jun-15 06:00N 30°04' W 093°24'3 5.4
2018-Jun-15 05:30N 30°04' W 093°21'2 4.8
2018-Jun-15 05:00N 30°06' W 093°20'4 7.2
2018-Jun-15 04:30N 30°09' W 093°20'0 0.1
2018-Jun-15 04:00N 30°09' W 093°20'0 0.0
2018-Jun-15 03:30N 30°09' W 093°20'0 0.0
2018-Jun-15 03:00N 30°09' W 093°20'0 0.0
2018-Jun-15 02:30N 30°09' W 093°20'0 0.0
2018-Jun-15 02:00N 30°09' W 093°20'0 0.0
2018-Jun-15 01:30N 30°09' W 093°20'0 0.0
2018-Jun-15 01:00N 30°09' W 093°20'0 0.0
2018-Jun-15 00:30N 30°09' W 093°20'0 0.0
2018-Jun-15 00:00N 30°09' W 093°20'0 0.0
2018-Jun-14 23:30N 30°09' W 093°20'0 0.0
2018-Jun-14 23:00N 30°09' W 093°20'3 5.9
2018-Jun-14 22:30N 30°06' W 093°20'1 2.9
2018-Jun-14 22:00N 30°05' W 093°20'0 0.0
2018-Jun-14 21:30N 30°05' W 093°20'1 1.3
2018-Jun-14 20:58N 30°06' W 093°20'2 3.3
2018-Jun-14 20:30N 30°07' W 093°20'2 3.6
2018-Jun-14 20:00N 30°09' W 093°20'1 2.7
2018-Jun-14 19:30N 30°08' W 093°20'3 5.2
2018-Jun-14 19:00N 30°05' W 093°20'2 3.4
2018-Jun-14 18:30N 30°04' W 093°21'0 0.0
2018-Jun-14 18:00N 30°04' W 093°21'2 3.2
2018-Jun-14 17:30N 30°05' W 093°20'0 0.7
2018-Jun-14 17:00N 30°05' W 093°20'0 0.3
2018-Jun-14 16:30N 30°05' W 093°20'2 4.1
2018-Jun-14 16:00N 30°04' W 093°22'2 4.6
2018-Jun-14 15:30N 30°05' W 093°20'0 0.9
2018-Jun-14 15:00N 30°06' W 093°20'0 0.4
2018-Jun-14 14:30N 30°06' W 093°20'3 6.4
2018-Jun-14 14:00N 30°09' W 093°20'0 0.8
2018-Jun-14 13:30N 30°09' W 093°20'0 0.0
2018-Jun-14 13:00N 30°09' W 093°20'0 0.0
2018-Jun-14 12:30N 30°09' W 093°20'0 0.0
2018-Jun-14 10:38N 30°09' W 093°20'0 0.0
2018-Jun-14 10:30N 30°09' W 093°20'0 0.0
2018-Jun-14 10:00N 30°09' W 093°20'0 0.0
2018-Jun-14 09:30N 30°09' W 093°20'0 0.0
2018-Jun-14 09:00N 30°09' W 093°20'0 0.0
2018-Jun-14 08:30N 30°09' W 093°20'0 0.0
2018-Jun-14 08:00N 30°09' W 093°20'0 0.0
2018-Jun-14 07:30N 30°09' W 093°20'0 0.0
2018-Jun-14 07:00N 30°09' W 093°20'1 1.4
2018-Jun-14 06:30N 30°09' W 093°20'3 5.7
2018-Jun-14 06:00N 30°06' W 093°20'2 4.1
2018-Jun-14 05:30N 30°04' W 093°21'2 3.6
2018-Jun-14 05:00N 30°04' W 093°23'2 4.9
2018-Jun-14 04:30N 30°04' W 093°26'3 4.9
2018-Jun-14 03:59N 30°04' W 093°29'2 4.8
2018-Jun-14 03:30N 30°04' W 093°31'3 4.6
2018-Jun-14 02:56N 30°04' W 093°34'2 4.6
2018-Jun-14 02:30N 30°04' W 093°37'2 4.5
2018-Jun-14 02:00N 30°03' W 093°39'2 4.6
2018-Jun-14 01:29N 30°03' W 093°42'2 4.5
2018-Jun-14 00:59N 30°02' W 093°44'2 4.3
2018-Jun-14 00:30N 30°01' W 093°46'2 4.6
2018-Jun-14 00:00N 29°59' W 093°48'3 5.1
2018-Jun-13 23:30N 29°58' W 093°51'1 2.4
2018-Jun-13 23:00N 29°58' W 093°52'0 0.0
2018-Jun-13 22:30N 29°58' W 093°52'0 0.0
2018-Jun-13 22:00N 29°58' W 093°52'0 0.0
2018-Jun-13 21:30N 29°58' W 093°52'0 0.0
2018-Jun-13 21:00N 29°58' W 093°52'0 0.0
2018-Jun-13 20:30N 29°58' W 093°52'0 0.0
2018-Jun-13 20:00N 29°58' W 093°52'0 0.1
2018-Jun-13 19:30N 29°58' W 093°52'2 4.8
2018-Jun-13 19:00N 29°59' W 093°54'3 6.7
2018-Jun-13 18:30N 30°00' W 093°57'3 5.9
2018-Jun-13 18:00N 30°01' W 094°01'2 4.5
2018-Jun-13 17:30N 30°02' W 094°03'0 0.0
2018-Jun-13 17:00N 30°02' W 094°03'0 0.0
2018-Jun-13 16:30N 30°02' W 094°03'0 0.0
2018-Jun-13 16:00N 30°02' W 094°03'0 0.0
2018-Jun-13 15:30N 30°02' W 094°03'0 0.0
2018-Jun-13 15:00N 30°02' W 094°03'0 0.0
2018-Jun-13 14:30N 30°02' W 094°03'0 0.0
2018-Jun-13 14:00N 30°02' W 094°03'0 0.0
2018-Jun-13 13:30N 30°02' W 094°03'0 0.0
2018-Jun-13 13:00N 30°02' W 094°03'0 0.0
2018-Jun-13 12:30N 30°02' W 094°03'0 0.0
2018-Jun-13 12:00N 30°02' W 094°03'0 0.0
2018-Jun-13 11:30N 30°02' W 094°03'0 0.0
2018-Jun-13 11:00N 30°02' W 094°03'0 0.0
2018-Jun-13 10:30N 30°02' W 094°03'2 3.9
2018-Jun-13 10:00N 30°01' W 094°01'3 6.6
2018-Jun-13 09:30N 30°00' W 093°57'3 5.8
2018-Jun-13 09:00N 29°59' W 093°54'3 5.9
2018-Jun-13 08:30N 29°57' W 093°52'4 7.7
2018-Jun-13 08:00N 29°54' W 093°54'4 7.2
2018-Jun-13 07:30N 29°51' W 093°57'3 5.4
2018-Jun-13 07:00N 29°49' W 093°59'0 0.1
2018-Jun-13 06:30N 29°49' W 093°59'0 0.0
2018-Jun-13 06:00N 29°49' W 093°59'2 3.6
2018-Jun-13 05:30N 29°48' W 094°00'3 6.4
2018-Jun-13 05:00N 29°46' W 094°03'3 6.6
2018-Jun-13 04:30N 29°44' W 094°06'3 6.0
2018-Jun-13 04:00N 29°42' W 094°09'3 6.3
2018-Jun-13 03:30N 29°41' W 094°12'3 6.0
2018-Jun-13 03:00N 29°39' W 094°15'3 5.7
2018-Jun-13 02:30N 29°38' W 094°18'27 5.9
2018-Jun-12 22:01N 29°25' W 094°44'1 6.0
2018-Jun-12 21:50N 29°24' W 094°45'2 5.7
2018-Jun-12 21:30N 29°22' W 094°47'13 6.3
2018-Jun-12 19:31N 29°33' W 094°55'6 7.1
2018-Jun-12 18:43N 29°38' W 094°58'2 7.5
2018-Jun-12 18:29N 29°40' W 094°58'4 0.2
2018-Jun-11 20:38N 29°42' W 095°01'2 6.3
2018-Jun-11 20:19N 29°41' W 094°59'1 0.2
2018-Jun-11 16:47N 29°41' W 094°58'1 3.0
2018-Jun-11 16:28N 29°40' W 094°59'3 5.3
2018-Jun-11 16:00N 29°38' W 094°58'27 3.4
2018-Jun-11 08:05N 29°34' W 094°27'1 4.2
2018-Jun-11 07:49N 29°34' W 094°26'2 3.7
2018-Jun-11 07:17N 29°36' W 094°25'1 4.7
2018-Jun-11 07:00N 29°36' W 094°23'2 3.8
2018-Jun-11 06:30N 29°37' W 094°21'2 3.1
2018-Jun-11 06:00N 29°37' W 094°20'2 4.9
2018-Jun-11 05:30N 29°38' W 094°17'2 4.9
2018-Jun-11 05:00N 29°40' W 094°15'2 4.8
2018-Jun-11 04:30N 29°41' W 094°12'2 4.6
2018-Jun-11 04:00N 29°41' W 094°10'2 4.2
2018-Jun-11 03:30N 29°43' W 094°08'2 4.5
2018-Jun-11 03:00N 29°44' W 094°06'2 4.5
2018-Jun-11 02:30N 29°45' W 094°04'2 4.7
2018-Jun-11 02:00N 29°47' W 094°02'2 4.6
2018-Jun-11 01:30N 29°49' W 093°60'2 5.0
2018-Jun-11 01:00N 29°50' W 093°57'4 7.6
2018-Jun-11 00:30N 29°53' W 093°55'4 7.6
2018-Jun-11 00:00N 29°56' W 093°52'3 5.6
2018-Jun-10 23:30N 29°59' W 093°52'3 6.9
2018-Jun-10 23:00N 29°60' W 093°56'3 5.6
2018-Jun-10 22:30N 30°01' W 093°59'3 5.9
2018-Jun-10 22:00N 30°02' W 094°02'1 1.5
2018-Jun-10 21:30N 30°02' W 094°03'0 0.0
2018-Jun-10 21:00N 30°02' W 094°03'0 0.0
2018-Jun-10 20:30N 30°02' W 094°03'0 0.0
2018-Jun-10 20:00N 30°02' W 094°03'0 0.0
2018-Jun-10 19:30N 30°02' W 094°03'0 0.0
2018-Jun-10 19:00N 30°02' W 094°03'0 0.0
2018-Jun-10 18:30N 30°02' W 094°03'0 0.0
2018-Jun-10 18:00N 30°02' W 094°03'0 0.0
2018-Jun-10 17:30N 30°02' W 094°03'0 0.0
2018-Jun-10 17:00N 30°02' W 094°03'0 0.0
2018-Jun-10 16:30N 30°02' W 094°03'0 0.0
2018-Jun-10 16:00N 30°02' W 094°03'0 0.0
2018-Jun-10 15:30N 30°02' W 094°03'0 0.0
2018-Jun-10 15:00N 30°02' W 094°03'0 0.0
2018-Jun-10 14:30N 30°02' W 094°03'0 0.0
2018-Jun-10 13:30N 30°02' W 094°03'0 0.0
2018-Jun-10 13:00N 30°02' W 094°03'0 0.0
2018-Jun-10 12:30N 30°02' W 094°03'0 0.0
2018-Jun-10 12:00N 30°02' W 094°03'0 0.0
2018-Jun-10 11:30N 30°02' W 094°03'0 0.0
2018-Jun-10 11:00N 30°02' W 094°03'0 0.0
2018-Jun-10 10:30N 30°02' W 094°03'0 0.0
2018-Jun-10 10:00N 30°02' W 094°03'0 0.0
2018-Jun-10 09:30N 30°02' W 094°03'0 0.0
2018-Jun-10 09:00N 30°02' W 094°03'0 0.0
2018-Jun-10 08:30N 30°02' W 094°03'0 0.0
2018-Jun-10 08:00N 30°02' W 094°03'0 0.0
2018-Jun-10 07:30N 30°02' W 094°03'0 0.0
2018-Jun-10 07:00N 30°02' W 094°03'1 1.5
2018-Jun-10 06:30N 30°02' W 094°02'3 6.6
2018-Jun-10 06:00N 30°01' W 093°58'3 6.0
2018-Jun-10 05:30N 29°59' W 093°55'3 6.1
2018-Jun-10 05:01N 29°59' W 093°52'3 5.1
2018-Jun-10 04:31N 29°56' W 093°52'3 5.5
2018-Jun-10 04:00N 29°54' W 093°54'3 5.3
2018-Jun-10 03:30N 29°52' W 093°56'2 4.6
2018-Jun-10 03:00N 29°50' W 093°57'2 4.7
2018-Jun-10 02:30N 29°49' W 093°60'4 7.3
2018-Jun-10 02:00N 29°46' W 094°03'4 7.3
2018-Jun-10 01:30N 29°44' W 094°06'4 7.5
2018-Jun-10 01:00N 29°42' W 094°09'4 7.0
2018-Jun-10 00:30N 29°40' W 094°13'3 6.8
2018-Jun-10 00:00N 29°39' W 094°17'3 6.5
2018-Jun-09 23:30N 29°37' W 094°20'  

Dump ship's entire track history